Cottonwood, Illinois
Current Conditions -  °F | °C
As of 2:53 AM on Friday 28 Nov 2014 (Local Time) from KMTO Reporting Station
Overcast Overcast  
Wind Chill: 19°   Ceiling: 8000
Heat Index: 19°   Visibility: 10mi
Dew Point:   Wind: 0mph
Humidity: 65%   Direction: NA
Pressure: 30.39"   Gusts: NA
Location:  39.2896°N, 88.2485°W
Report Text: KMTO 280853Z AUTO 00000KT 10SM OVC080 M07/M13 A3039 RMK AO2 SLP302 T10721128 56008
Loading
Personal Weather Stations






























Interactive Weather Map New forecast layout! Learn more

10-Day Weather Forecast

Advertisements
Track Severe Weather on mobile